In Rescue
 
Wind Gusting 00 knots
06
October 19, 2019 12:56 PM EDT
Weather Information
Wind Direction
  180 °
Wind Speed
  06 kt (7 mph)
Wind Gust
  00 kt (0 mph)
Altimeter
29.93 in
Visibility
10 SM
Temperature
19° C
66° F
Dewpoint
07° C
45° F
Humidity
46%
Sky Condition
Clear
VFR

METAR KIMS 191656Z AUTO 18006KT 10SM CLR 19/07 A2993 RMK AO1

FAA Disclaimer: The data displayed is for advisory purposes only and is not to be used for flight planning or operations.